createdAt,value
2018-12-24T00:00:06.943Z,926.53
2018-12-24T00:00:19.898Z,926.53
2018-12-24T00:00:32.913Z,926.52
2018-12-24T00:00:45.966Z,926.52
2018-12-24T00:00:58.991Z,926.53
2018-12-24T00:01:11.944Z,926.55
2018-12-24T00:01:24.948Z,926.53
2018-12-24T00:01:37.913Z,926.54
2018-12-24T00:01:50.950Z,926.55
2018-12-24T00:02:03.974Z,926.55
2018-12-24T00:02:16.988Z,926.55
2018-12-24T00:02:29.979Z,926.55
2018-12-24T00:02:42.935Z,926.56
2018-12-24T00:02:56.006Z,926.55
2018-12-24T00:03:09.069Z,926.57
2018-12-24T00:03:22.116Z,926.51
2018-12-24T00:03:35.121Z,926.55
2018-12-24T00:03:48.096Z,926.54
2018-12-24T00:04:01.107Z,926.52
2018-12-24T00:04:14.064Z,926.56
2018-12-24T00:04:27.046Z,926.51
2018-12-24T00:04:40.022Z,926.54
2018-12-24T00:04:53.097Z,926.53
2018-12-24T00:05:06.075Z,926.55
2018-12-24T00:05:18.614Z,926.52
2018-12-24T00:05:31.617Z,926.57
2018-12-24T00:05:44.160Z,926.55
2018-12-24T00:05:57.097Z,926.56
2018-12-24T00:06:10.065Z,926.59
2018-12-24T00:06:23.132Z,926.53
2018-12-24T00:06:36.073Z,926.56
2018-12-24T00:06:49.053Z,926.58
2018-12-24T00:07:02.071Z,926.54
2018-12-24T00:07:15.050Z,926.55
2018-12-24T00:07:28.015Z,926.56
2018-12-24T00:07:41.019Z,926.57
2018-12-24T00:07:54.002Z,926.52
2018-12-24T00:08:07.040Z,926.57
2018-12-24T00:08:20.057Z,926.53
2018-12-24T00:08:33.072Z,926.58
2018-12-24T00:08:46.093Z,926.57
2018-12-24T00:08:59.075Z,926.57
2018-12-24T00:09:12.028Z,926.58
2018-12-24T00:09:25.005Z,926.6
2018-12-24T00:09:38.061Z,926.56
2018-12-24T00:09:51.055Z,926.56
2018-12-24T00:10:04.035Z,926.58
2018-12-24T00:10:17.029Z,926.56
2018-12-24T00:10:30.053Z,926.59
2018-12-24T00:10:42.986Z,926.56
2018-12-24T00:10:55.948Z,926.58
2018-12-24T00:11:08.925Z,926.58
2018-12-24T00:11:21.874Z,926.58
2018-12-24T00:11:34.919Z,926.62
2018-12-24T00:11:47.885Z,926.58
2018-12-24T00:12:08.249Z,926.57
2018-12-24T00:12:21.271Z,926.59
2018-12-24T00:12:34.245Z,926.57
2018-12-24T00:12:47.231Z,926.62
2018-12-24T00:13:00.182Z,926.59
2018-12-24T00:13:13.193Z,926.61
2018-12-24T00:13:25.722Z,926.56
2018-12-24T00:13:38.721Z,926.59
2018-12-24T00:13:51.714Z,926.6
2018-12-24T00:14:04.701Z,926.59
2018-12-24T00:14:17.691Z,926.62
2018-12-24T00:14:30.705Z,926.6
2018-12-24T00:14:43.674Z,926.59
2018-12-24T00:14:56.785Z,926.61
2018-12-24T00:15:10.040Z,926.58
2018-12-24T00:15:23.014Z,926.58
2018-12-24T00:15:35.950Z,926.58
2018-12-24T00:15:48.952Z,926.57
2018-12-24T00:16:01.967Z,926.61
2018-12-24T00:16:14.987Z,926.59
2018-12-24T00:16:28.106Z,926.59
2018-12-24T00:16:41.110Z,926.59
2018-12-24T00:16:54.103Z,926.6
2018-12-24T00:17:07.107Z,926.6
2018-12-24T00:17:20.101Z,926.6
2018-12-24T00:17:33.127Z,926.59
2018-12-24T00:17:46.095Z,926.58
2018-12-24T00:17:59.081Z,926.59
2018-12-24T00:18:12.113Z,926.59
2018-12-24T00:18:25.112Z,926.62
2018-12-24T00:18:38.036Z,926.61
2018-12-24T00:18:51.017Z,926.6
2018-12-24T00:19:04.024Z,926.6
2018-12-24T00:19:17.069Z,926.65
2018-12-24T00:19:30.052Z,926.58
2018-12-24T00:19:43.011Z,926.63
2018-12-24T00:19:56.011Z,926.6
2018-12-24T00:20:08.967Z,926.61
2018-12-24T00:20:21.964Z,926.61
2018-12-24T00:20:34.964Z,926.6
2018-12-24T00:20:47.936Z,926.59
2018-12-24T00:21:00.927Z,926.58
2018-12-24T00:21:14.082Z,926.64
2018-12-24T00:21:27.126Z,926.6
2018-12-24T00:21:39.655Z,926.63
2018-12-24T00:21:52.664Z,926.62
2018-12-24T00:22:05.600Z,926.61
2018-12-24T00:22:18.594Z,926.59
2018-12-24T00:22:31.635Z,926.65
2018-12-24T00:22:44.687Z,926.62
2018-12-24T00:22:57.690Z,926.6
2018-12-24T00:23:10.670Z,926.59
2018-12-24T00:23:23.663Z,926.61
2018-12-24T00:23:36.660Z,926.64
2018-12-24T00:23:49.687Z,926.61
2018-12-24T00:24:02.657Z,926.6
2018-12-24T00:24:15.693Z,926.6
2018-12-24T00:24:28.717Z,926.59
2018-12-24T00:24:41.668Z,926.6
2018-12-24T00:24:54.688Z,926.6
2018-12-24T00:25:07.618Z,926.59
2018-12-24T00:25:20.568Z,926.59
2018-12-24T00:25:33.614Z,926.52
2018-12-24T00:25:46.645Z,926.58
2018-12-24T00:25:59.609Z,926.57
2018-12-24T00:26:12.595Z,926.6
2018-12-24T00:26:25.537Z,926.57
2018-12-24T00:26:38.484Z,926.57
2018-12-24T00:26:51.442Z,926.58
2018-12-24T00:27:04.439Z,926.57
2018-12-24T00:27:17.417Z,926.55
2018-12-24T00:27:30.423Z,926.58
2018-12-24T00:27:43.443Z,926.55
2018-12-24T00:27:56.439Z,926.58
2018-12-24T00:28:09.447Z,926.59
2018-12-24T00:28:22.498Z,926.57
2018-12-24T00:28:35.474Z,926.57
2018-12-24T00:28:47.948Z,926.57
2018-12-24T00:29:00.949Z,926.57
2018-12-24T00:29:13.966Z,926.57
2018-12-24T00:29:27.023Z,926.55
2018-12-24T00:29:39.996Z,926.55
2018-12-24T00:29:53.019Z,926.56
2018-12-24T00:30:06.057Z,926.56
2018-12-24T00:30:19.856Z,926.56
2018-12-24T00:30:32.930Z,926.57
2018-12-24T00:30:45.854Z,926.57
2018-12-24T00:30:58.880Z,926.56
2018-12-24T00:31:11.852Z,926.6
2018-12-24T00:31:24.829Z,926.55
2018-12-24T00:31:37.808Z,926.53
2018-12-24T00:31:50.754Z,926.56
2018-12-24T00:32:03.875Z,926.56
2018-12-24T00:32:16.910Z,926.61
2018-12-24T00:32:29.868Z,926.58
2018-12-24T00:32:42.865Z,926.57
2018-12-24T00:32:55.886Z,926.57
2018-12-24T00:33:08.897Z,926.58
2018-12-24T00:33:21.897Z,926.59
2018-12-24T00:33:34.884Z,926.58
2018-12-24T00:33:47.828Z,926.58
2018-12-24T00:34:00.909Z,926.56
2018-12-24T00:34:13.907Z,926.54
2018-12-24T00:34:26.898Z,926.59
2018-12-24T00:34:39.892Z,926.58
2018-12-24T00:34:52.907Z,926.56
2018-12-24T00:35:05.945Z,926.55
2018-12-24T00:35:18.909Z,926.55
2018-12-24T00:35:31.424Z,926.61
2018-12-24T00:35:44.430Z,926.56
2018-12-24T00:35:57.361Z,926.55
2018-12-24T00:36:10.326Z,926.58
2018-12-24T00:36:23.324Z,926.59
2018-12-24T00:36:36.340Z,926.53
2018-12-24T00:36:49.403Z,926.53
2018-12-24T00:37:02.373Z,926.57
2018-12-24T00:37:15.360Z,926.54
2018-12-24T00:37:28.329Z,926.55
2018-12-24T00:37:41.336Z,926.55
2018-12-24T00:37:54.375Z,926.53
2018-12-24T00:38:07.386Z,926.58
2018-12-24T00:38:20.432Z,926.54
2018-12-24T00:38:33.445Z,926.54
2018-12-24T00:38:46.418Z,926.55
2018-12-24T00:38:59.358Z,926.54
2018-12-24T00:39:11.863Z,926.55
2018-12-24T00:39:24.868Z,926.52
2018-12-24T00:39:37.796Z,926.55
2018-12-24T00:39:50.854Z,926.51
2018-12-24T00:40:03.970Z,926.52
2018-12-24T00:40:16.951Z,926.57
2018-12-24T00:40:29.954Z,926.49
2018-12-24T00:40:43.067Z,926.55
2018-12-24T00:40:56.052Z,926.56
2018-12-24T00:41:09.055Z,926.53
2018-12-24T00:41:22.011Z,926.48
2018-12-24T00:41:35.023Z,926.54
2018-12-24T00:41:48.010Z,926.52
2018-12-24T00:42:00.998Z,926.53
2018-12-24T00:42:22.779Z,926.52
2018-12-24T00:42:36.758Z,926.53
2018-12-24T00:42:49.806Z,926.53
2018-12-24T00:43:02.355Z,926.54
2018-12-24T00:43:15.333Z,926.52
2018-12-24T00:43:28.300Z,926.49
2018-12-24T00:43:41.291Z,926.49
2018-12-24T00:43:54.294Z,926.52
2018-12-24T00:44:07.314Z,926.52
2018-12-24T00:44:20.306Z,926.54
2018-12-24T00:44:33.381Z,926.53
2018-12-24T00:44:46.353Z,926.52
2018-12-24T00:44:59.320Z,926.56
2018-12-24T00:45:12.420Z,926.52
2018-12-24T00:45:26.448Z,926.51
2018-12-24T00:45:39.487Z,926.51
2018-12-24T00:45:52.490Z,926.55
2018-12-24T00:46:05.472Z,926.52
2018-12-24T00:46:18.477Z,926.49
2018-12-24T00:46:31.421Z,926.55
2018-12-24T00:46:44.405Z,926.51
2018-12-24T00:46:57.311Z,926.54
2018-12-24T00:47:10.293Z,926.52
2018-12-24T00:47:23.282Z,926.55
2018-12-24T00:47:36.231Z,926.54
2018-12-24T00:47:49.248Z,926.53
2018-12-24T00:48:02.214Z,926.53
2018-12-24T00:48:16.728Z,926.5
2018-12-24T00:48:29.786Z,926.52
2018-12-24T00:48:42.724Z,926.55
2018-12-24T00:48:55.694Z,926.57
2018-12-24T00:49:08.686Z,926.54
2018-12-24T00:49:21.633Z,926.54
2018-12-24T00:49:34.656Z,926.54
2018-12-24T00:49:47.640Z,926.53
2018-12-24T00:50:00.651Z,926.52
2018-12-24T00:50:13.609Z,926.53
2018-12-24T00:50:26.671Z,926.53
2018-12-24T00:50:39.649Z,926.52
2018-12-24T00:50:52.653Z,926.55
2018-12-24T00:51:05.615Z,926.52
2018-12-24T00:51:18.642Z,926.51
2018-12-24T00:51:31.587Z,926.53
2018-12-24T00:51:44.548Z,926.53
2018-12-24T00:51:57.525Z,926.51
2018-12-24T00:52:10.462Z,926.51
2018-12-24T00:52:23.529Z,926.51
2018-12-24T00:52:36.532Z,926.54
2018-12-24T00:52:49.487Z,926.51
2018-12-24T00:53:02.483Z,926.5
2018-12-24T00:53:15.507Z,926.52
2018-12-24T00:53:28.499Z,926.54
2018-12-24T00:53:41.490Z,926.54
2018-12-24T00:53:54.456Z,926.52
2018-12-24T00:54:07.459Z,926.53
2018-12-24T00:54:20.464Z,926.5
2018-12-24T00:54:33.442Z,926.53
2018-12-24T00:54:46.405Z,926.51
2018-12-24T00:54:59.399Z,926.52
2018-12-24T00:55:12.391Z,926.52
2018-12-24T00:55:25.341Z,926.51
2018-12-24T00:55:38.330Z,926.57
2018-12-24T00:55:51.343Z,926.53
2018-12-24T00:56:03.891Z,926.55
2018-12-24T00:56:16.915Z,926.53
2018-12-24T00:56:30.167Z,926.57
2018-12-24T00:56:43.164Z,926.58
2018-12-24T00:56:56.155Z,926.55
2018-12-24T00:57:09.088Z,926.52
2018-12-24T00:57:22.141Z,926.57
2018-12-24T00:57:35.180Z,926.54
2018-12-24T00:57:48.207Z,926.56
2018-12-24T00:58:01.215Z,926.59
2018-12-24T00:58:14.224Z,926.55
2018-12-24T00:58:27.226Z,926.53
2018-12-24T00:58:40.218Z,926.54
2018-12-24T00:58:53.242Z,926.57
2018-12-24T00:59:06.232Z,926.57
2018-12-24T00:59:19.163Z,926.51
2018-12-24T00:59:32.201Z,926.58
2018-12-24T00:59:45.206Z,926.52
2018-12-24T00:59:58.189Z,926.51
2018-12-24T01:00:11.386Z,926.51
2018-12-24T01:00:25.335Z,926.51
2018-12-24T01:00:38.333Z,926.52
2018-12-24T01:00:51.340Z,926.54
2018-12-24T01:01:04.468Z,926.54
2018-12-24T01:01:17.494Z,926.57
2018-12-24T01:01:30.546Z,926.53
2018-12-24T01:01:43.557Z,926.52
2018-12-24T01:01:56.554Z,926.58
2018-12-24T01:02:09.666Z,926.52
2018-12-24T01:02:22.669Z,926.5
2018-12-24T01:02:35.622Z,926.53
2018-12-24T01:02:48.587Z,926.5
2018-12-24T01:03:01.653Z,926.52
2018-12-24T01:03:14.141Z,926.52
2018-12-24T01:03:27.100Z,926.54
2018-12-24T01:03:40.115Z,926.51
2018-12-24T01:03:53.094Z,926.53
2018-12-24T01:04:06.056Z,926.53
2018-12-24T01:04:19.063Z,926.48
2018-12-24T01:04:32.112Z,926.55
2018-12-24T01:04:45.083Z,926.54
2018-12-24T01:04:58.079Z,926.52
2018-12-24T01:05:11.112Z,926.51
2018-12-24T01:05:24.130Z,926.52
2018-12-24T01:05:37.130Z,926.53
2018-12-24T01:05:50.119Z,926.54
2018-12-24T01:06:03.128Z,926.52
2018-12-24T01:06:16.147Z,926.51
2018-12-24T01:06:29.111Z,926.52
2018-12-24T01:06:42.040Z,926.52
2018-12-24T01:06:54.996Z,926.56
2018-12-24T01:07:08.031Z,926.51
2018-12-24T01:07:21.101Z,926.52
2018-12-24T01:07:34.112Z,926.55
2018-12-24T01:07:47.098Z,926.57
2018-12-24T01:08:00.098Z,926.52
2018-12-24T01:08:13.077Z,926.52
2018-12-24T01:08:26.039Z,926.52
2018-12-24T01:08:39.099Z,926.52
2018-12-24T01:08:52.112Z,926.56
2018-12-24T01:09:05.086Z,926.52
2018-12-24T01:09:18.134Z,926.52
2018-12-24T01:09:31.121Z,926.52
2018-12-24T01:09:44.145Z,926.54
2018-12-24T01:09:57.143Z,926.54
2018-12-24T01:10:10.269Z,926.54
2018-12-24T01:10:23.306Z,926.58
2018-12-24T01:10:36.304Z,926.57
2018-12-24T01:10:49.317Z,926.55
2018-12-24T01:11:02.308Z,926.55
2018-12-24T01:11:15.340Z,926.56
2018-12-24T01:11:28.365Z,926.58
2018-12-24T01:11:41.382Z,926.56
2018-12-24T01:11:54.409Z,926.58
2018-12-24T01:12:08.094Z,926.59
2018-12-24T01:12:28.543Z,926.61
2018-12-24T01:12:41.506Z,926.59
2018-12-24T01:12:54.476Z,926.61
2018-12-24T01:13:07.430Z,926.63
2018-12-24T01:13:20.374Z,926.6
2018-12-24T01:13:33.291Z,926.61
2018-12-24T01:13:46.286Z,926.6
2018-12-24T01:13:59.265Z,926.61
2018-12-24T01:14:12.278Z,926.6
2018-12-24T01:14:25.279Z,926.61
2018-12-24T01:14:38.288Z,926.61
2018-12-24T01:14:51.286Z,926.61
2018-12-24T01:15:04.310Z,926.61
2018-12-24T01:15:17.340Z,926.59
2018-12-24T01:15:31.212Z,926.63
2018-12-24T01:15:44.192Z,926.58
2018-12-24T01:15:57.157Z,926.63
2018-12-24T01:16:10.180Z,926.61
2018-12-24T01:16:23.114Z,926.61
2018-12-24T01:16:36.081Z,926.61
2018-12-24T01:16:49.055Z,926.62
2018-12-24T01:17:02.029Z,926.63
2018-12-24T01:17:14.971Z,926.62
2018-12-24T01:17:28.011Z,926.64
2018-12-24T01:17:40.997Z,926.62
2018-12-24T01:17:53.953Z,926.63
2018-12-24T01:18:06.939Z,926.61
2018-12-24T01:18:19.930Z,926.59
2018-12-24T01:18:32.931Z,926.62
2018-12-24T01:18:45.966Z,926.63
2018-12-24T01:18:59.007Z,926.62
2018-12-24T01:19:12.057Z,926.62
2018-12-24T01:19:25.050Z,926.63
2018-12-24T01:19:38.035Z,926.59
2018-12-24T01:19:50.555Z,926.59
2018-12-24T01:20:03.592Z,926.62
2018-12-24T01:20:16.589Z,926.6
2018-12-24T01:20:29.560Z,926.63
2018-12-24T01:20:44.021Z,926.61
2018-12-24T01:20:56.610Z,926.62
2018-12-24T01:21:09.638Z,926.62
2018-12-24T01:21:22.209Z,926.62
2018-12-24T01:21:35.127Z,926.63
2018-12-24T01:21:48.209Z,926.6
2018-12-24T01:22:01.166Z,926.61
2018-12-24T01:22:14.134Z,926.62
2018-12-24T01:22:27.183Z,926.61
2018-12-24T01:22:40.143Z,926.64
2018-12-24T01:22:53.123Z,926.6
2018-12-24T01:23:06.134Z,926.63
2018-12-24T01:23:19.141Z,926.59
2018-12-24T01:23:32.140Z,926.63
2018-12-24T01:23:45.141Z,926.64
2018-12-24T01:23:58.078Z,926.64
2018-12-24T01:24:11.069Z,926.64
2018-12-24T01:24:24.070Z,926.62
2018-12-24T01:24:37.009Z,926.67
2018-12-24T01:24:49.942Z,926.65
2018-12-24T01:25:02.976Z,926.66
2018-12-24T01:25:16.010Z,926.67
2018-12-24T01:25:28.986Z,926.62
2018-12-24T01:25:41.975Z,926.63
2018-12-24T01:25:54.938Z,926.62
2018-12-24T01:26:07.932Z,926.65
2018-12-24T01:26:20.895Z,926.62
2018-12-24T01:26:33.910Z,926.59
2018-12-24T01:26:46.953Z,926.61
2018-12-24T01:27:00.021Z,926.59
2018-12-24T01:27:13.029Z,926.64
2018-12-24T01:27:26.002Z,926.63
2018-12-24T01:27:38.937Z,926.65
2018-12-24T01:27:51.856Z,926.64
2018-12-24T01:28:04.867Z,926.64
2018-12-24T01:28:17.938Z,926.66
2018-12-24T01:28:30.878Z,926.66
2018-12-24T01:28:43.866Z,926.64
2018-12-24T01:28:56.887Z,926.65
2018-12-24T01:29:09.829Z,926.62
2018-12-24T01:29:22.843Z,926.64
2018-12-24T01:29:35.820Z,926.66
2018-12-24T01:29:48.915Z,926.65
2018-12-24T01:30:01.954Z,926.65
2018-12-24T01:30:14.906Z,926.66
2018-12-24T01:30:27.932Z,926.68
2018-12-24T01:30:41.678Z,926.68
2018-12-24T01:30:54.703Z,926.68
2018-12-24T01:31:07.674Z,926.65
2018-12-24T01:31:20.734Z,926.65
2018-12-24T01:31:33.672Z,926.66
2018-12-24T01:31:46.690Z,926.65
2018-12-24T01:31:59.652Z,926.67
2018-12-24T01:32:12.607Z,926.72
2018-12-24T01:32:25.579Z,926.63
2018-12-24T01:32:38.620Z,926.66
2018-12-24T01:32:51.606Z,926.69
2018-12-24T01:33:04.660Z,926.68
2018-12-24T01:33:17.672Z,926.71
2018-12-24T01:33:30.233Z,926.69
2018-12-24T01:33:43.223Z,926.7
2018-12-24T01:33:56.200Z,926.69
2018-12-24T01:34:09.183Z,926.73
2018-12-24T01:34:22.165Z,926.73
2018-12-24T01:34:35.077Z,926.73
2018-12-24T01:34:47.514Z,926.71
2018-12-24T01:35:00.536Z,926.72
2018-12-24T01:35:13.472Z,926.68
2018-12-24T01:35:26.458Z,926.7
2018-12-24T01:35:39.363Z,926.72
2018-12-24T01:35:52.347Z,926.72
2018-12-24T01:36:05.379Z,926.72
2018-12-24T01:36:18.423Z,926.7
2018-12-24T01:36:31.430Z,926.73
2018-12-24T01:36:44.423Z,926.7
2018-12-24T01:36:57.415Z,926.69
2018-12-24T01:37:10.727Z,926.7
2018-12-24T01:37:23.692Z,926.7
2018-12-24T01:37:36.675Z,926.73
2018-12-24T01:37:49.617Z,926.7
2018-12-24T01:38:02.615Z,926.74
2018-12-24T01:38:15.584Z,926.73
2018-12-24T01:38:28.522Z,926.73
2018-12-24T01:38:41.510Z,926.72
2018-12-24T01:38:54.543Z,926.74
2018-12-24T01:39:07.551Z,926.73
2018-12-24T01:39:20.497Z,926.75
2018-12-24T01:39:33.434Z,926.74
2018-12-24T01:39:46.364Z,926.75
2018-12-24T01:39:59.412Z,926.76
2018-12-24T01:40:12.417Z,926.74
2018-12-24T01:40:25.420Z,926.76
2018-12-24T01:40:38.419Z,926.74
2018-12-24T01:40:51.424Z,926.7
2018-12-24T01:41:04.429Z,926.72
2018-12-24T01:41:17.408Z,926.71
2018-12-24T01:41:30.383Z,926.7
2018-12-24T01:41:43.372Z,926.68
2018-12-24T01:41:55.978Z,926.68
2018-12-24T01:42:08.955Z,926.66
2018-12-24T01:42:21.455Z,926.71
2018-12-24T01:42:43.281Z,926.69
2018-12-24T01:42:56.264Z,926.67
2018-12-24T01:43:09.274Z,926.65
2018-12-24T01:43:22.276Z,926.64
2018-12-24T01:43:35.380Z,926.67
2018-12-24T01:43:48.412Z,926.66
2018-12-24T01:44:01.417Z,926.62
2018-12-24T01:44:14.586Z,926.65
2018-12-24T01:44:27.534Z,926.65
2018-12-24T01:44:40.552Z,926.62
2018-12-24T01:44:53.610Z,926.6
2018-12-24T01:45:06.605Z,926.63
2018-12-24T01:45:19.722Z,926.6
2018-12-24T01:45:32.678Z,926.58
2018-12-24T01:45:46.390Z,926.57
2018-12-24T01:45:59.347Z,926.62
2018-12-24T01:46:12.305Z,926.61
2018-12-24T01:46:25.296Z,926.59
2018-12-24T01:46:38.342Z,926.61
2018-12-24T01:46:51.370Z,926.58
2018-12-24T01:47:04.327Z,926.58
2018-12-24T01:47:17.253Z,926.58
2018-12-24T01:47:30.239Z,926.58
2018-12-24T01:47:43.206Z,926.6
2018-12-24T01:47:56.202Z,926.6
2018-12-24T01:48:09.175Z,926.59
2018-12-24T01:48:22.183Z,926.56
2018-12-24T01:48:35.286Z,926.57
2018-12-24T01:48:48.250Z,926.56
2018-12-24T01:49:01.274Z,926.57
2018-12-24T01:49:14.290Z,926.59
2018-12-24T01:49:27.225Z,926.61
2018-12-24T01:49:40.220Z,926.59
2018-12-24T01:49:53.236Z,926.59
2018-12-24T01:50:06.242Z,926.59
2018-12-24T01:50:19.282Z,926.59
2018-12-24T01:50:32.264Z,926.61
2018-12-24T01:50:45.276Z,926.6
2018-12-24T01:50:58.283Z,926.59
2018-12-24T01:51:11.296Z,926.59
2018-12-24T01:51:24.293Z,926.56
2018-12-24T01:51:37.303Z,926.57
2018-12-24T01:51:50.281Z,926.59
2018-12-24T01:52:03.272Z,926.6
2018-12-24T01:52:16.300Z,926.57
2018-12-24T01:52:29.285Z,926.61
2018-12-24T01:52:42.294Z,926.55
2018-12-24T01:52:55.339Z,926.58
2018-12-24T01:53:08.299Z,926.59
2018-12-24T01:53:21.343Z,926.58
2018-12-24T01:53:34.395Z,926.57
2018-12-24T01:53:47.412Z,926.59
2018-12-24T01:54:00.390Z,926.57
2018-12-24T01:54:12.897Z,926.59
2018-12-24T01:54:25.494Z,926.6
2018-12-24T01:54:38.470Z,926.59
2018-12-24T01:54:51.427Z,926.61
2018-12-24T01:55:04.441Z,926.6
2018-12-24T01:55:17.479Z,926.58
2018-12-24T01:55:30.040Z,926.61
2018-12-24T01:55:43.066Z,926.58
2018-12-24T01:55:56.377Z,926.63
2018-12-24T01:56:09.390Z,926.63
2018-12-24T01:56:22.410Z,926.6
2018-12-24T01:56:35.443Z,926.61
2018-12-24T01:56:48.558Z,926.62
2018-12-24T01:57:01.566Z,926.62
2018-12-24T01:57:14.511Z,926.61
2018-12-24T01:57:27.524Z,926.58
2018-12-24T01:57:40.547Z,926.59
2018-12-24T01:57:53.544Z,926.6
2018-12-24T01:58:06.556Z,926.58
2018-12-24T01:58:19.551Z,926.6
2018-12-24T01:58:32.584Z,926.57
2018-12-24T01:58:45.536Z,926.58
2018-12-24T01:58:58.591Z,926.6
2018-12-24T01:59:11.615Z,926.59
2018-12-24T01:59:26.921Z,926.61
2018-12-24T01:59:39.870Z,926.6
2018-12-24T01:59:52.863Z,926.59
2018-12-24T02:00:05.821Z,926.59
2018-12-24T02:00:18.745Z,926.6
2018-12-24T02:00:31.775Z,926.6
2018-12-24T02:00:44.802Z,926.6
2018-12-24T02:00:58.618Z,926.6
2018-12-24T02:01:11.659Z,926.59
2018-12-24T02:01:24.647Z,926.59
2018-12-24T02:01:37.700Z,926.59
2018-12-24T02:01:50.658Z,926.59
2018-12-24T02:02:03.660Z,926.57
2018-12-24T02:02:16.654Z,926.58
2018-12-24T02:02:29.665Z,926.55
2018-12-24T02:02:42.550Z,926.52
2018-12-24T02:02:55.556Z,926.56
2018-12-24T02:03:08.583Z,926.56
2018-12-24T02:03:21.556Z,926.54
2018-12-24T02:03:34.523Z,926.57
2018-12-24T02:03:47.491Z,926.59
2018-12-24T02:04:00.483Z,926.58
2018-12-24T02:04:12.975Z,926.6
2018-12-24T02:04:25.945Z,926.57
2018-12-24T02:04:38.970Z,926.59
2018-12-24T02:04:51.973Z,926.6
2018-12-24T02:05:04.971Z,926.56
2018-12-24T02:05:18.012Z,926.57
2018-12-24T02:05:31.012Z,926.61
2018-12-24T02:05:44.051Z,926.61
2018-12-24T02:05:57.040Z,926.6
2018-12-24T02:06:10.053Z,926.62
2018-12-24T02:06:23.028Z,926.6
2018-12-24T02:06:35.970Z,926.64
2018-12-24T02:06:48.974Z,926.66
2018-12-24T02:07:01.974Z,926.67
2018-12-24T02:07:15.005Z,926.63
2018-12-24T02:07:28.009Z,926.62
2018-12-24T02:07:40.977Z,926.67
2018-12-24T02:07:53.966Z,926.66
2018-12-24T02:08:06.955Z,926.67
2018-12-24T02:08:19.892Z,926.67
2018-12-24T02:08:32.788Z,926.68
2018-12-24T02:08:45.816Z,926.66
2018-12-24T02:08:58.733Z,926.71
2018-12-24T02:09:11.678Z,926.69
2018-12-24T02:09:24.615Z,926.7
2018-12-24T02:09:37.590Z,926.71
2018-12-24T02:09:50.603Z,926.69
2018-12-24T02:10:03.617Z,926.74
2018-12-24T02:10:16.635Z,926.73
2018-12-24T02:10:29.557Z,926.72
2018-12-24T02:10:42.580Z,926.7
2018-12-24T02:10:55.092Z,926.71
2018-12-24T02:11:08.043Z,926.72
2018-12-24T02:11:21.065Z,926.72
2018-12-24T02:11:34.114Z,926.71
2018-12-24T02:11:47.075Z,926.71
2018-12-24T02:12:00.116Z,926.72
2018-12-24T02:12:13.120Z,926.7
2018-12-24T02:12:25.705Z,926.73
2018-12-24T02:12:46.263Z,926.71
2018-12-24T02:12:59.264Z,926.72
2018-12-24T02:13:12.230Z,926.71
2018-12-24T02:13:25.261Z,926.7
2018-12-24T02:13:38.224Z,926.7
2018-12-24T02:13:51.217Z,926.72
2018-12-24T02:14:04.212Z,926.66
2018-12-24T02:14:17.146Z,926.67
2018-12-24T02:14:30.162Z,926.65
2018-12-24T02:14:43.216Z,926.64
2018-12-24T02:14:56.243Z,926.64
2018-12-24T02:15:09.202Z,926.64
2018-12-24T02:15:22.215Z,926.62
2018-12-24T02:15:35.181Z,926.66
2018-12-24T02:15:48.144Z,926.6
2018-12-24T02:16:01.762Z,926.6
2018-12-24T02:16:14.699Z,926.6
2018-12-24T02:16:27.633Z,926.6
2018-12-24T02:16:40.655Z,926.61
2018-12-24T02:16:53.628Z,926.6
2018-12-24T02:17:06.592Z,926.62
2018-12-24T02:17:19.555Z,926.57
2018-12-24T02:17:32.513Z,926.58
2018-12-24T02:17:45.449Z,926.54
2018-12-24T02:17:58.428Z,926.57
2018-12-24T02:18:11.412Z,926.55
2018-12-24T02:18:24.519Z,926.56
2018-12-24T02:18:37.573Z,926.56
2018-12-24T02:18:50.607Z,926.56
2018-12-24T02:19:03.604Z,926.54
2018-12-24T02:19:16.656Z,926.56
2018-12-24T02:19:29.604Z,926.53
2018-12-24T02:19:42.547Z,926.52
2018-12-24T02:19:55.541Z,926.49
2018-12-24T02:20:08.506Z,926.51
2018-12-24T02:20:21.457Z,926.49
2018-12-24T02:20:34.462Z,926.5
2018-12-24T02:20:47.419Z,926.54
2018-12-24T02:21:00.385Z,926.5
2018-12-24T02:21:13.405Z,926.48
2018-12-24T02:21:26.456Z,926.48
2018-12-24T02:21:39.448Z,926.5
2018-12-24T02:21:52.398Z,926.5
2018-12-24T02:22:13.783Z,926.53
2018-12-24T02:22:26.741Z,926.51
2018-12-24T02:22:39.696Z,926.52
2018-12-24T02:22:52.727Z,926.49
2018-12-24T02:23:05.761Z,926.52
2018-12-24T02:23:18.752Z,926.48
2018-12-24T02:23:31.722Z,926.48
2018-12-24T02:23:44.230Z,926.5
2018-12-24T02:23:57.194Z,926.48
2018-12-24T02:24:10.212Z,926.5
2018-12-24T02:24:23.278Z,926.5
2018-12-24T02:24:36.286Z,926.5
2018-12-24T02:24:49.307Z,926.47
2018-12-24T02:25:02.329Z,926.5
2018-12-24T02:25:15.308Z,926.44
2018-12-24T02:25:28.269Z,926.48
2018-12-24T02:25:41.260Z,926.48
2018-12-24T02:25:54.264Z,926.46
2018-12-24T02:26:07.257Z,926.46
2018-12-24T02:26:20.254Z,926.44
2018-12-24T02:26:33.268Z,926.46
2018-12-24T02:26:46.298Z,926.44
2018-12-24T02:26:59.268Z,926.43
2018-12-24T02:27:12.252Z,926.44
2018-12-24T02:27:24.764Z,926.44
2018-12-24T02:27:37.778Z,926.44
2018-12-24T02:27:50.757Z,926.43
2018-12-24T02:28:03.736Z,926.44
2018-12-24T02:28:16.694Z,926.42
2018-12-24T02:28:29.677Z,926.4
2018-12-24T02:28:42.633Z,926.41
2018-12-24T02:28:55.569Z,926.4
2018-12-24T02:29:08.602Z,926.39
2018-12-24T02:29:21.630Z,926.41
2018-12-24T02:29:34.637Z,926.41
2018-12-24T02:29:47.661Z,926.4
2018-12-24T02:30:00.604Z,926.41
2018-12-24T02:30:13.668Z,926.4
2018-12-24T02:30:26.691Z,926.45
2018-12-24T02:30:39.866Z,926.41
2018-12-24T02:30:52.884Z,926.44
2018-12-24T02:31:06.516Z,926.42
2018-12-24T02:31:19.537Z,926.45
2018-12-24T02:31:32.696Z,926.42
2018-12-24T02:31:45.636Z,926.43
2018-12-24T02:31:58.649Z,926.44
2018-12-24T02:32:11.662Z,926.44
2018-12-24T02:32:24.691Z,926.44
2018-12-24T02:32:37.733Z,926.44
2018-12-24T02:32:50.772Z,926.44
2018-12-24T02:33:03.806Z,926.42
2018-12-24T02:33:16.810Z,926.43
2018-12-24T02:33:29.806Z,926.4
2018-12-24T02:33:42.766Z,926.39
2018-12-24T02:33:55.817Z,926.4
2018-12-24T02:34:08.830Z,926.43
2018-12-24T02:34:21.797Z,926.39
2018-12-24T02:34:34.857Z,926.44
2018-12-24T02:34:47.819Z,926.41
2018-12-24T02:35:00.808Z,926.41
2018-12-24T02:35:13.835Z,926.41
2018-12-24T02:35:26.889Z,926.42
2018-12-24T02:35:40.057Z,926.42
2018-12-24T02:35:53.039Z,926.39
2018-12-24T02:36:06.001Z,926.42
2018-12-24T02:36:18.961Z,926.43
2018-12-24T02:36:31.528Z,926.39
2018-12-24T02:36:44.489Z,926.41
2018-12-24T02:36:57.454Z,926.42
2018-12-24T02:37:10.472Z,926.39
2018-12-24T02:37:23.467Z,926.4
2018-12-24T02:37:36.481Z,926.39
2018-12-24T02:37:49.427Z,926.42
2018-12-24T02:38:02.485Z,926.42
2018-12-24T02:38:15.665Z,926.39
2018-12-24T02:38:28.607Z,926.4
2018-12-24T02:38:41.598Z,926.41
2018-12-24T02:38:54.612Z,926.42
2018-12-24T02:39:07.153Z,926.4
2018-12-24T02:39:20.256Z,926.4
2018-12-24T02:39:32.737Z,926.39
2018-12-24T02:39:45.735Z,926.4
2018-12-24T02:39:58.731Z,926.39
2018-12-24T02:40:11.825Z,926.38
2018-12-24T02:40:24.868Z,926.41
2018-12-24T02:40:37.930Z,926.41
2018-12-24T02:40:50.930Z,926.4
2018-12-24T02:41:03.929Z,926.39
2018-12-24T02:41:16.883Z,926.38
2018-12-24T02:41:29.867Z,926.39
2018-12-24T02:41:42.839Z,926.35
2018-12-24T02:41:55.814Z,926.4
2018-12-24T02:42:08.849Z,926.42
2018-12-24T02:42:21.808Z,926.39
2018-12-24T02:42:34.821Z,926.39
2018-12-24T02:42:56.390Z,926.38
2018-12-24T02:43:09.441Z,926.38
2018-12-24T02:43:22.444Z,926.36
2018-12-24T02:43:35.454Z,926.38
2018-12-24T02:43:48.445Z,926.4